Terminal Aerodrome Forecast
Issued by NWS Mt. Holly, NJ

Home | Current Version | Previous Version | Text Only | Print | Product List | Glossary On
Versions: 1 2 3 4 5 6 7 8 9 10 11 12 13 14 15 16 17 18 19
000
FTUS41 KPHI 020500 RRA
TAFILG
TAF
KILG 020546Z 0206/0306 35004KT P6SM SCT025 OVC100
      TEMPO 0209/0212 4SM BR BKN025
     FM021200 01008KT P6SM BKN030
     FM021400 02009KT P6SM SCT030 BKN040
     FM022200 07006KT P6SM BKN040=

USA.gov is the U.S. government's official web portal to all federal, state and local government web resources and services.